Huvudsida
METAR-TAF:

METAR-TAF

Flygplatser :

Singapore, Singapore

latitud: 01-25-08N, longitud: 103-51-57E, höjd: 11 m

Aktuellt väderrapport

Denna rapport gjordes för 23 minuter sedan, klockan 19:00 UTC
Vind 2 kt varierande vindriktning
Temperatur 26°C
Fuktighet 89%
Tryck 1011 hPa
Sikt 10 km eller mer
Få moln på en höjd av 1800 ft
Brutna moln på en höjd av 16000 ft

METAR: WSSL 231900Z VRB02KT 9999 FEW018 BKN160 26/24 Q1011

Tid: 03:23 (19:23 UTC)

Väderprognos

Denna rapport gjordes för 2 timmar och 23 minuter sedan, klockan 17:00 UTC
Prognos gäller från 23 kl. 18 UTC till 25 kl. 00 UTC
Vind 7 kt från väst/sydväst
Sikt 10 km eller mer
Få moln på en höjd av 1800 ft, Cumulonimbus.
Spridda moln på en höjd av 2000 ft
Temporärt
från 24 kl. 03 UTC till 24 kl. 07 UTC
Sikt: 3000 m
Få moln på en höjd av 1200 ft, Cumulonimbus.
Brutna moln på en höjd av 1500 ft
åska, regn

TAF: WSSL 231700Z 2318/2500 24007KT 9999 FEW018CB SCT020 TEMPO 2403/2407 3000 TSRA FEW012CB BKN015

Aktuella väderrapporter och prognoser från 4000 flygplatser (METAR- och TAF-rapporter).

De tillgängliga stationerna syns som gula och röda prickar på kartan.

För musen över prickarna för att se namnen på stationerna.

Klicka sedan för att få väderrapporter och prognoser.

För att ändra kartan: Klicka på de gröna knapparna med ett svart kors på för att zooma in; den gröna knappen med ett streck på för att zooma ut; eller på de gröna pilarna för angränsande kartor.


METAR-TAF: